Terminal Aerodrome Forecast
Issued by NWS

Home | Current Version | Previous Version | Text Only | Print | Product List | Glossary On
Versions: 1 2 3 4 5 6 7 8 9 10 11 12 13 14 15 16 17 18 19 20 21 22
000
FTUS46 KSEW 301700
TAFHQM
TAF
KHQM 301720Z 3018/3118 19006KT 6SM HZ SKC
     FM302000 25012KT P6SM SKC
     FM310000 27010KT P6SM SKC
     FM310400 27005KT P6SM SKC
     FM311100 22004KT 5SM BR BKN005=

USA.gov is the U.S. government's official web portal to all federal, state and local government web resources and services.